sensor_id;sensor_type;location;lat;lon;timestamp;P1;durP1;ratioP1;P2;durP2;ratioP2
27313;SDS011;14800;48.174;9.798;2023-07-31T00:01:20;1.85;;;1.27;;
27313;SDS011;14800;48.174;9.798;2023-07-31T00:03:46;3.25;;;1.45;;
27313;SDS011;14800;48.174;9.798;2023-07-31T00:06:12;3.47;;;1.50;;
27313;SDS011;14800;48.174;9.798;2023-07-31T00:08:38;1.48;;;1.33;;
27313;SDS011;14800;48.174;9.798;2023-07-31T00:11:03;1.85;;;1.50;;
27313;SDS011;14800;48.174;9.798;2023-07-31T00:13:29;2.85;;;1.60;;
27313;SDS011;14800;48.174;9.798;2023-07-31T00:15:54;2.08;;;1.50;;
27313;SDS011;14800;48.174;9.798;2023-07-31T00:18:20;2.20;;;1.48;;
27313;SDS011;14800;48.174;9.798;2023-07-31T00:20:46;3.35;;;1.60;;
27313;SDS011;14800;48.174;9.798;2023-07-31T00:23:11;3.17;;;1.70;;
27313;SDS011;14800;48.174;9.798;2023-07-31T00:25:37;2.65;;;1.60;;
27313;SDS011;14800;48.174;9.798;2023-07-31T00:28:02;3.47;;;1.60;;
27313;SDS011;14800;48.174;9.798;2023-07-31T00:30:28;2.80;;;1.63;;
27313;SDS011;14800;48.174;9.798;2023-07-31T00:32:54;3.85;;;1.70;;
27313;SDS011;14800;48.174;9.798;2023-07-31T00:35:19;1.85;;;1.40;;
27313;SDS011;14800;48.174;9.798;2023-07-31T00:37:45;2.53;;;1.67;;
27313;SDS011;14800;48.174;9.798;2023-07-31T00:40:10;3.50;;;1.80;;
27313;SDS011;14800;48.174;9.798;2023-07-31T00:42:36;2.63;;;1.75;;
27313;SDS011;14800;48.174;9.798;2023-07-31T00:45:01;1.80;;;1.50;;
27313;SDS011;14800;48.174;9.798;2023-07-31T00:47:27;1.60;;;1.50;;
27313;SDS011;14800;48.174;9.798;2023-07-31T00:49:53;2.65;;;1.42;;
27313;SDS011;14800;48.174;9.798;2023-07-31T00:52:18;2.45;;;1.52;;
27313;SDS011;14800;48.174;9.798;2023-07-31T00:54:45;1.67;;;1.30;;
27313;SDS011;14800;48.174;9.798;2023-07-31T00:57:11;2.55;;;1.45;;
27313;SDS011;14800;48.174;9.798;2023-07-31T00:59:36;1.48;;;1.20;;
27313;SDS011;14800;48.174;9.798;2023-07-31T01:02:02;4.82;;;1.58;;
27313;SDS011;14800;48.174;9.798;2023-07-31T01:04:28;3.60;;;1.45;;
27313;SDS011;14800;48.174;9.798;2023-07-31T01:09:37;1.83;;;1.33;;
27313;SDS011;14800;48.174;9.798;2023-07-31T01:12:17;3.38;;;1.30;;
27313;SDS011;14800;48.174;9.798;2023-07-31T01:14:51;2.72;;;1.50;;
27313;SDS011;14800;48.174;9.798;2023-07-31T01:17:27;2.95;;;1.48;;
27313;SDS011;14800;48.174;9.798;2023-07-31T01:19:53;2.65;;;1.50;;
27313;SDS011;14800;48.174;9.798;2023-07-31T01:25:44;1.58;;;1.40;;
27313;SDS011;14800;48.174;9.798;2023-07-31T01:28:12;2.88;;;1.40;;
27313;SDS011;14800;48.174;9.798;2023-07-31T01:30:43;3.45;;;1.30;;
27313;SDS011;14800;48.174;9.798;2023-07-31T01:33:12;2.72;;;1.77;;
27313;SDS011;14800;48.174;9.798;2023-07-31T01:35:39;1.48;;;1.38;;
27313;SDS011;14800;48.174;9.798;2023-07-31T01:38:08;2.67;;;1.48;;
27313;SDS011;14800;48.174;9.798;2023-07-31T01:40:33;2.38;;;1.50;;
27313;SDS011;14800;48.174;9.798;2023-07-31T01:42:59;3.38;;;1.70;;
27313;SDS011;14800;48.174;9.798;2023-07-31T01:45:25;3.70;;;1.40;;
27313;SDS011;14800;48.174;9.798;2023-07-31T01:47:50;3.00;;;1.33;;
27313;SDS011;14800;48.174;9.798;2023-07-31T01:50:16;1.73;;;1.45;;
27313;SDS011;14800;48.174;9.798;2023-07-31T01:52:41;1.77;;;1.45;;
27313;SDS011;14800;48.174;9.798;2023-07-31T01:55:07;2.33;;;1.65;;
27313;SDS011;14800;48.174;9.798;2023-07-31T01:57:33;1.48;;;1.33;;
27313;SDS011;14800;48.174;9.798;2023-07-31T01:59:58;3.97;;;1.58;;
27313;SDS011;14800;48.174;9.798;2023-07-31T02:02:24;1.35;;;1.25;;
27313;SDS011;14800;48.174;9.798;2023-07-31T02:04:49;1.65;;;1.48;;
27313;SDS011;14800;48.174;9.798;2023-07-31T02:07:15;1.63;;;1.38;;
27313;SDS011;14800;48.174;9.798;2023-07-31T02:09:41;5.80;;;1.40;;
27313;SDS011;14800;48.174;9.798;2023-07-31T02:12:06;1.98;;;1.55;;
27313;SDS011;14800;48.174;9.798;2023-07-31T02:14:33;4.38;;;1.80;;
27313;SDS011;14800;48.174;9.798;2023-07-31T02:16:59;2.92;;;1.50;;
27313;SDS011;14800;48.174;9.798;2023-07-31T02:19:25;3.67;;;1.50;;
27313;SDS011;14800;48.174;9.798;2023-07-31T02:21:50;2.00;;;1.33;;
27313;SDS011;14800;48.174;9.798;2023-07-31T02:24:16;2.50;;;1.50;;
27313;SDS011;14800;48.174;9.798;2023-07-31T02:26:42;2.05;;;1.60;;
27313;SDS011;14800;48.174;9.798;2023-07-31T02:29:08;1.80;;;1.50;;
27313;SDS011;14800;48.174;9.798;2023-07-31T02:31:33;4.45;;;1.60;;
27313;SDS011;14800;48.174;9.798;2023-07-31T02:33:59;2.92;;;1.40;;
27313;SDS011;14800;48.174;9.798;2023-07-31T02:36:25;1.60;;;1.30;;
27313;SDS011;14800;48.174;9.798;2023-07-31T02:38:50;2.92;;;1.67;;
27313;SDS011;14800;48.174;9.798;2023-07-31T02:41:16;1.83;;;1.05;;
27313;SDS011;14800;48.174;9.798;2023-07-31T02:43:41;2.33;;;1.33;;
27313;SDS011;14800;48.174;9.798;2023-07-31T02:46:07;1.90;;;1.10;;
27313;SDS011;14800;48.174;9.798;2023-07-31T02:48:33;3.13;;;1.40;;
27313;SDS011;14800;48.174;9.798;2023-07-31T02:50:58;4.10;;;1.42;;
27313;SDS011;14800;48.174;9.798;2023-07-31T02:53:24;2.13;;;1.50;;
27313;SDS011;14800;48.174;9.798;2023-07-31T02:55:49;1.75;;;1.40;;
27313;SDS011;14800;48.174;9.798;2023-07-31T02:58:15;1.85;;;1.38;;
27313;SDS011;14800;48.174;9.798;2023-07-31T03:00:44;2.58;;;1.50;;
27313;SDS011;14800;48.174;9.798;2023-07-31T03:03:09;1.20;;;1.10;;
27313;SDS011;14800;48.174;9.798;2023-07-31T03:05:35;2.88;;;1.30;;
27313;SDS011;14800;48.174;9.798;2023-07-31T03:08:01;3.55;;;1.67;;
27313;SDS011;14800;48.174;9.798;2023-07-31T03:10:26;1.75;;;1.40;;
27313;SDS011;14800;48.174;9.798;2023-07-31T03:12:52;2.20;;;1.33;;
27313;SDS011;14800;48.174;9.798;2023-07-31T03:15:18;1.90;;;1.30;;
27313;SDS011;14800;48.174;9.798;2023-07-31T03:17:43;2.38;;;1.55;;
27313;SDS011;14800;48.174;9.798;2023-07-31T03:20:09;2.00;;;1.52;;
27313;SDS011;14800;48.174;9.798;2023-07-31T03:22:35;1.80;;;1.25;;
27313;SDS011;14800;48.174;9.798;2023-07-31T03:25:01;2.70;;;1.52;;
27313;SDS011;14800;48.174;9.798;2023-07-31T03:27:27;3.03;;;1.60;;
27313;SDS011;14800;48.174;9.798;2023-07-31T03:29:53;2.20;;;1.42;;
27313;SDS011;14800;48.174;9.798;2023-07-31T03:32:19;3.00;;;1.50;;
27313;SDS011;14800;48.174;9.798;2023-07-31T03:34:44;2.60;;;1.50;;
27313;SDS011;14800;48.174;9.798;2023-07-31T03:37:10;1.95;;;1.65;;
27313;SDS011;14800;48.174;9.798;2023-07-31T03:39:35;2.65;;;1.70;;
27313;SDS011;14800;48.174;9.798;2023-07-31T03:42:01;3.65;;;1.52;;
27313;SDS011;14800;48.174;9.798;2023-07-31T03:44:27;2.05;;;1.50;;
27313;SDS011;14800;48.174;9.798;2023-07-31T03:46:53;1.90;;;1.70;;
27313;SDS011;14800;48.174;9.798;2023-07-31T03:49:18;2.05;;;1.63;;
27313;SDS011;14800;48.174;9.798;2023-07-31T03:51:44;2.45;;;1.73;;
27313;SDS011;14800;48.174;9.798;2023-07-31T03:54:10;3.75;;;1.85;;
27313;SDS011;14800;48.174;9.798;2023-07-31T03:56:35;2.65;;;1.83;;
27313;SDS011;14800;48.174;9.798;2023-07-31T03:59:02;4.72;;;2.03;;
27313;SDS011;14800;48.174;9.798;2023-07-31T04:01:28;2.92;;;2.03;;
27313;SDS011;14800;48.174;9.798;2023-07-31T04:03:53;3.67;;;2.15;;
27313;SDS011;14800;48.174;9.798;2023-07-31T04:06:19;2.25;;;1.92;;
27313;SDS011;14800;48.174;9.798;2023-07-31T04:08:45;2.08;;;1.58;;
27313;SDS011;14800;48.174;9.798;2023-07-31T04:11:10;2.03;;;1.80;;
27313;SDS011;14800;48.174;9.798;2023-07-31T04:13:37;2.35;;;1.70;;
27313;SDS011;14800;48.174;9.798;2023-07-31T04:16:03;2.78;;;1.90;;
27313;SDS011;14800;48.174;9.798;2023-07-31T04:18:28;2.00;;;1.80;;
27313;SDS011;14800;48.174;9.798;2023-07-31T04:20:56;2.30;;;1.90;;
27313;SDS011;14800;48.174;9.798;2023-07-31T04:23:23;2.30;;;1.83;;
27313;SDS011;14800;48.174;9.798;2023-07-31T04:25:49;2.38;;;1.52;;
27313;SDS011;14800;48.174;9.798;2023-07-31T04:28:15;3.13;;;2.00;;
27313;SDS011;14800;48.174;9.798;2023-07-31T04:30:40;2.50;;;1.70;;
27313;SDS011;14800;48.174;9.798;2023-07-31T04:33:06;3.15;;;1.60;;
27313;SDS011;14800;48.174;9.798;2023-07-31T04:35:31;2.08;;;1.85;;
27313;SDS011;14800;48.174;9.798;2023-07-31T04:37:57;5.43;;;2.20;;
27313;SDS011;14800;48.174;9.798;2023-07-31T04:40:22;2.47;;;1.70;;
27313;SDS011;14800;48.174;9.798;2023-07-31T04:42:48;2.50;;;1.40;;
27313;SDS011;14800;48.174;9.798;2023-07-31T04:45:14;3.20;;;1.65;;
27313;SDS011;14800;48.174;9.798;2023-07-31T04:47:39;1.92;;;1.50;;
27313;SDS011;14800;48.174;9.798;2023-07-31T04:50:05;3.33;;;1.70;;
27313;SDS011;14800;48.174;9.798;2023-07-31T04:52:31;3.90;;;1.73;;
27313;SDS011;14800;48.174;9.798;2023-07-31T04:54:57;3.95;;;2.40;;
27313;SDS011;14800;48.174;9.798;2023-07-31T04:57:22;3.65;;;1.73;;
27313;SDS011;14800;48.174;9.798;2023-07-31T04:59:48;4.78;;;1.90;;
27313;SDS011;14800;48.174;9.798;2023-07-31T05:02:13;2.45;;;1.83;;
27313;SDS011;14800;48.174;9.798;2023-07-31T05:04:39;5.80;;;1.90;;
27313;SDS011;14800;48.174;9.798;2023-07-31T05:07:05;4.28;;;1.70;;
27313;SDS011;14800;48.174;9.798;2023-07-31T05:09:30;2.85;;;1.85;;
27313;SDS011;14800;48.174;9.798;2023-07-31T05:11:56;2.13;;;1.88;;
27313;SDS011;14800;48.174;9.798;2023-07-31T05:14:22;1.83;;;1.73;;
27313;SDS011;14800;48.174;9.798;2023-07-31T05:16:48;2.83;;;1.80;;
27313;SDS011;14800;48.174;9.798;2023-07-31T05:19:14;3.40;;;1.55;;
27313;SDS011;14800;48.174;9.798;2023-07-31T05:21:39;2.28;;;1.65;;
27313;SDS011;14800;48.174;9.798;2023-07-31T05:24:05;1.58;;;1.33;;
27313;SDS011;14800;48.174;9.798;2023-07-31T05:26:31;1.85;;;1.55;;
27313;SDS011;14800;48.174;9.798;2023-07-31T05:28:56;3.50;;;1.60;;
27313;SDS011;14800;48.174;9.798;2023-07-31T05:31:23;3.80;;;1.30;;
27313;SDS011;14800;48.174;9.798;2023-07-31T05:33:49;2.60;;;1.52;;
27313;SDS011;14800;48.174;9.798;2023-07-31T05:36:15;3.20;;;1.70;;
27313;SDS011;14800;48.174;9.798;2023-07-31T05:38:41;2.60;;;1.67;;
27313;SDS011;14800;48.174;9.798;2023-07-31T05:41:09;2.53;;;1.80;;
27313;SDS011;14800;48.174;9.798;2023-07-31T05:43:35;2.88;;;1.50;;
27313;SDS011;14800;48.174;9.798;2023-07-31T05:46:00;2.13;;;1.70;;
27313;SDS011;14800;48.174;9.798;2023-07-31T05:48:26;3.55;;;1.70;;
27313;SDS011;14800;48.174;9.798;2023-07-31T05:50:52;2.75;;;1.38;;
27313;SDS011;14800;48.174;9.798;2023-07-31T05:53:17;2.63;;;1.70;;
27313;SDS011;14800;48.174;9.798;2023-07-31T05:55:43;4.18;;;1.60;;
27313;SDS011;14800;48.174;9.798;2023-07-31T05:58:09;2.55;;;1.73;;
27313;SDS011;14800;48.174;9.798;2023-07-31T06:00:34;4.32;;;1.40;;
27313;SDS011;14800;48.174;9.798;2023-07-31T06:03:00;2.50;;;1.80;;
27313;SDS011;14800;48.174;9.798;2023-07-31T06:05:25;6.32;;;1.80;;
27313;SDS011;14800;48.174;9.798;2023-07-31T06:07:53;3.45;;;2.03;;
27313;SDS011;14800;48.174;9.798;2023-07-31T06:10:18;1.65;;;1.55;;
27313;SDS011;14800;48.174;9.798;2023-07-31T06:12:44;4.00;;;1.65;;
27313;SDS011;14800;48.174;9.798;2023-07-31T06:15:10;3.78;;;1.77;;
27313;SDS011;14800;48.174;9.798;2023-07-31T06:17:36;2.90;;;1.42;;
27313;SDS011;14800;48.174;9.798;2023-07-31T06:20:01;2.40;;;1.30;;
27313;SDS011;14800;48.174;9.798;2023-07-31T06:22:30;1.63;;;1.30;;
27313;SDS011;14800;48.174;9.798;2023-07-31T06:24:55;3.60;;;1.55;;
27313;SDS011;14800;48.174;9.798;2023-07-31T06:27:21;5.22;;;1.20;;
27313;SDS011;14800;48.174;9.798;2023-07-31T06:29:47;3.70;;;1.20;;
27313;SDS011;14800;48.174;9.798;2023-07-31T06:32:13;4.75;;;1.55;;
27313;SDS011;14800;48.174;9.798;2023-07-31T06:34:38;3.00;;;1.15;;
27313;SDS011;14800;48.174;9.798;2023-07-31T06:37:04;2.70;;;1.20;;
27313;SDS011;14800;48.174;9.798;2023-07-31T06:39:30;1.73;;;1.20;;
27313;SDS011;14800;48.174;9.798;2023-07-31T06:41:55;2.05;;;1.42;;
27313;SDS011;14800;48.174;9.798;2023-07-31T06:44:21;3.53;;;1.25;;
27313;SDS011;14800;48.174;9.798;2023-07-31T06:46:46;3.47;;;1.30;;
27313;SDS011;14800;48.174;9.798;2023-07-31T06:49:12;3.33;;;1.30;;
27313;SDS011;14800;48.174;9.798;2023-07-31T06:51:40;4.20;;;1.10;;
27313;SDS011;14800;48.174;9.798;2023-07-31T06:54:06;4.70;;;1.27;;
27313;SDS011;14800;48.174;9.798;2023-07-31T06:56:32;2.65;;;1.20;;
27313;SDS011;14800;48.174;9.798;2023-07-31T06:58:58;2.47;;;1.30;;
27313;SDS011;14800;48.174;9.798;2023-07-31T07:01:23;2.85;;;1.00;;
27313;SDS011;14800;48.174;9.798;2023-07-31T07:03:49;3.83;;;1.48;;
27313;SDS011;14800;48.174;9.798;2023-07-31T07:06:16;2.88;;;1.38;;
27313;SDS011;14800;48.174;9.798;2023-07-31T07:08:42;3.67;;;1.25;;
27313;SDS011;14800;48.174;9.798;2023-07-31T07:11:08;4.72;;;1.35;;
27313;SDS011;14800;48.174;9.798;2023-07-31T07:13:34;2.33;;;1.23;;
27313;SDS011;14800;48.174;9.798;2023-07-31T07:15:59;2.50;;;1.10;;
27313;SDS011;14800;48.174;9.798;2023-07-31T07:18:25;3.25;;;1.40;;
27313;SDS011;14800;48.174;9.798;2023-07-31T07:20:51;2.10;;;1.30;;
27313;SDS011;14800;48.174;9.798;2023-07-31T07:23:18;2.70;;;1.20;;
27313;SDS011;14800;48.174;9.798;2023-07-31T07:25:45;2.17;;;1.10;;
27313;SDS011;14800;48.174;9.798;2023-07-31T07:28:12;3.53;;;1.35;;
27313;SDS011;14800;48.174;9.798;2023-07-31T07:30:37;2.85;;;1.20;;
27313;SDS011;14800;48.174;9.798;2023-07-31T07:33:03;3.28;;;1.33;;
27313;SDS011;14800;48.174;9.798;2023-07-31T07:35:29;2.65;;;1.15;;
27313;SDS011;14800;48.174;9.798;2023-07-31T07:37:54;4.28;;;1.40;;
27313;SDS011;14800;48.174;9.798;2023-07-31T07:40:20;1.35;;;1.00;;
27313;SDS011;14800;48.174;9.798;2023-07-31T07:42:46;3.60;;;1.17;;
27313;SDS011;14800;48.174;9.798;2023-07-31T07:45:12;4.75;;;1.70;;
27313;SDS011;14800;48.174;9.798;2023-07-31T07:47:38;4.47;;;1.25;;
27313;SDS011;14800;48.174;9.798;2023-07-31T07:50:05;1.95;;;1.00;;
27313;SDS011;14800;48.174;9.798;2023-07-31T07:52:31;2.22;;;1.00;;
27313;SDS011;14800;48.174;9.798;2023-07-31T07:54:57;1.55;;;0.95;;
27313;SDS011;14800;48.174;9.798;2023-07-31T07:57:22;3.15;;;1.27;;
27313;SDS011;14800;48.174;9.798;2023-07-31T07:59:48;2.25;;;1.08;;
27313;SDS011;14800;48.174;9.798;2023-07-31T08:02:13;5.93;;;1.10;;
27313;SDS011;14800;48.174;9.798;2023-07-31T08:04:39;2.53;;;1.27;;
27313;SDS011;14800;48.174;9.798;2023-07-31T08:07:05;2.88;;;1.13;;
27313;SDS011;14800;48.174;9.798;2023-07-31T08:09:30;2.67;;;1.40;;
27313;SDS011;14800;48.174;9.798;2023-07-31T08:11:56;3.03;;;1.20;;
27313;SDS011;14800;48.174;9.798;2023-07-31T08:14:26;1.35;;;0.85;;
27313;SDS011;14800;48.174;9.798;2023-07-31T08:16:52;4.55;;;1.10;;
27313;SDS011;14800;48.174;9.798;2023-07-31T08:19:18;3.15;;;1.10;;
27313;SDS011;14800;48.174;9.798;2023-07-31T08:21:43;1.67;;;1.05;;
27313;SDS011;14800;48.174;9.798;2023-07-31T08:24:09;3.47;;;1.17;;
27313;SDS011;14800;48.174;9.798;2023-07-31T08:26:35;2.20;;;0.82;;
27313;SDS011;14800;48.174;9.798;2023-07-31T08:29:00;2.05;;;1.15;;
27313;SDS011;14800;48.174;9.798;2023-07-31T08:31:26;3.30;;;1.08;;
27313;SDS011;14800;48.174;9.798;2023-07-31T08:33:52;3.50;;;0.95;;
27313;SDS011;14800;48.174;9.798;2023-07-31T08:36:17;2.08;;;1.10;;
27313;SDS011;14800;48.174;9.798;2023-07-31T08:38:43;2.78;;;1.13;;
27313;SDS011;14800;48.174;9.798;2023-07-31T08:41:10;4.03;;;1.30;;
27313;SDS011;14800;48.174;9.798;2023-07-31T08:43:35;2.70;;;1.42;;
27313;SDS011;14800;48.174;9.798;2023-07-31T08:46:02;4.75;;;1.00;;
27313;SDS011;14800;48.174;9.798;2023-07-31T08:48:29;3.60;;;1.13;;
27313;SDS011;14800;48.174;9.798;2023-07-31T08:50:56;5.75;;;1.33;;
27313;SDS011;14800;48.174;9.798;2023-07-31T08:53:22;1.67;;;0.98;;
27313;SDS011;14800;48.174;9.798;2023-07-31T08:55:48;2.30;;;1.00;;
27313;SDS011;14800;48.174;9.798;2023-07-31T08:58:14;3.47;;;1.13;;
27313;SDS011;14800;48.174;9.798;2023-07-31T09:00:40;3.03;;;1.10;;
27313;SDS011;14800;48.174;9.798;2023-07-31T09:03:09;2.85;;;1.27;;
27313;SDS011;14800;48.174;9.798;2023-07-31T09:05:38;3.45;;;1.05;;
27313;SDS011;14800;48.174;9.798;2023-07-31T09:08:07;2.50;;;1.00;;
27313;SDS011;14800;48.174;9.798;2023-07-31T09:10:35;2.20;;;0.98;;
27313;SDS011;14800;48.174;9.798;2023-07-31T09:13:00;3.17;;;1.08;;
27313;SDS011;14800;48.174;9.798;2023-07-31T09:15:27;2.15;;;0.95;;
27313;SDS011;14800;48.174;9.798;2023-07-31T09:17:58;4.20;;;1.10;;
27313;SDS011;14800;48.174;9.798;2023-07-31T09:20:28;2.17;;;1.10;;
27313;SDS011;14800;48.174;9.798;2023-07-31T09:22:54;2.95;;;1.10;;
27313;SDS011;14800;48.174;9.798;2023-07-31T09:25:24;3.00;;;1.30;;
27313;SDS011;14800;48.174;9.798;2023-07-31T09:30:23;4.03;;;1.20;;
27313;SDS011;14800;48.174;9.798;2023-07-31T09:32:50;4.97;;;1.38;;
27313;SDS011;14800;48.174;9.798;2023-07-31T09:35:20;1.95;;;0.98;;
27313;SDS011;14800;48.174;9.798;2023-07-31T09:38:05;4.32;;;1.23;;
27313;SDS011;14800;48.174;9.798;2023-07-31T09:40:34;4.97;;;1.20;;
27313;SDS011;14800;48.174;9.798;2023-07-31T09:43:04;2.15;;;1.10;;
27313;SDS011;14800;48.174;9.798;2023-07-31T09:45:33;2.40;;;1.00;;
27313;SDS011;14800;48.174;9.798;2023-07-31T09:48:01;2.55;;;1.10;;
27313;SDS011;14800;48.174;9.798;2023-07-31T09:50:28;2.45;;;1.20;;
27313;SDS011;14800;48.174;9.798;2023-07-31T09:52:54;3.35;;;1.10;;
27313;SDS011;14800;48.174;9.798;2023-07-31T09:55:20;3.03;;;1.00;;
27313;SDS011;14800;48.174;9.798;2023-07-31T09:57:49;2.75;;;1.10;;
27313;SDS011;14800;48.174;9.798;2023-07-31T10:00:16;3.35;;;0.75;;
27313;SDS011;14800;48.174;9.798;2023-07-31T10:02:44;3.88;;;1.20;;
27313;SDS011;14800;48.174;9.798;2023-07-31T10:05:12;1.98;;;1.00;;
27313;SDS011;14800;48.174;9.798;2023-07-31T10:07:42;1.98;;;1.13;;
27313;SDS011;14800;48.174;9.798;2023-07-31T10:10:15;1.35;;;1.00;;
27313;SDS011;14800;48.174;9.798;2023-07-31T10:12:41;4.85;;;1.30;;
27313;SDS011;14800;48.174;9.798;2023-07-31T10:15:08;3.58;;;1.65;;
27313;SDS011;14800;48.174;9.798;2023-07-31T10:17:35;3.45;;;1.38;;
27313;SDS011;14800;48.174;9.798;2023-07-31T10:20:02;3.80;;;1.48;;
27313;SDS011;14800;48.174;9.798;2023-07-31T10:22:30;2.42;;;1.10;;
27313;SDS011;14800;48.174;9.798;2023-07-31T10:24:57;3.03;;;1.08;;
27313;SDS011;14800;48.174;9.798;2023-07-31T10:27:24;2.78;;;1.20;;
27313;SDS011;14800;48.174;9.798;2023-07-31T10:29:50;2.17;;;1.05;;
27313;SDS011;14800;48.174;9.798;2023-07-31T10:32:17;4.07;;;1.15;;
27313;SDS011;14800;48.174;9.798;2023-07-31T10:34:43;5.40;;;1.42;;
27313;SDS011;14800;48.174;9.798;2023-07-31T10:40:24;3.38;;;1.23;;
27313;SDS011;14800;48.174;9.798;2023-07-31T10:42:52;2.30;;;1.30;;
27313;SDS011;14800;48.174;9.798;2023-07-31T10:45:32;3.63;;;1.10;;
27313;SDS011;14800;48.174;9.798;2023-07-31T10:48:07;2.30;;;1.07;;
27313;SDS011;14800;48.174;9.798;2023-07-31T10:50:38;2.63;;;1.20;;
27313;SDS011;14800;48.174;9.798;2023-07-31T10:53:22;3.10;;;1.35;;
27313;SDS011;14800;48.174;9.798;2023-07-31T10:56:02;4.53;;;1.23;;
27313;SDS011;14800;48.174;9.798;2023-07-31T10:58:32;1.13;;;1.00;;
27313;SDS011;14800;48.174;9.798;2023-07-31T11:00:59;3.67;;;1.10;;
27313;SDS011;14800;48.174;9.798;2023-07-31T11:03:45;4.20;;;1.60;;
27313;SDS011;14800;48.174;9.798;2023-07-31T11:06:17;2.35;;;1.25;;
27313;SDS011;14800;48.174;9.798;2023-07-31T11:08:43;3.30;;;1.40;;
27313;SDS011;14800;48.174;9.798;2023-07-31T11:11:11;3.53;;;1.27;;
27313;SDS011;14800;48.174;9.798;2023-07-31T11:13:39;3.30;;;1.27;;
27313;SDS011;14800;48.174;9.798;2023-07-31T11:16:09;3.03;;;1.15;;
27313;SDS011;14800;48.174;9.798;2023-07-31T11:18:37;1.65;;;1.40;;
27313;SDS011;14800;48.174;9.798;2023-07-31T11:21:04;4.63;;;1.38;;
27313;SDS011;14800;48.174;9.798;2023-07-31T11:23:30;2.08;;;1.25;;
27313;SDS011;14800;48.174;9.798;2023-07-31T11:25:58;2.85;;;1.10;;
27313;SDS011;14800;48.174;9.798;2023-07-31T11:28:25;2.75;;;1.10;;
27313;SDS011;14800;48.174;9.798;2023-07-31T11:30:50;1.60;;;1.00;;
27313;SDS011;14800;48.174;9.798;2023-07-31T11:33:16;2.60;;;1.20;;
27313;SDS011;14800;48.174;9.798;2023-07-31T11:35:46;2.88;;;1.27;;
27313;SDS011;14800;48.174;9.798;2023-07-31T11:40:51;2.60;;;1.10;;
27313;SDS011;14800;48.174;9.798;2023-07-31T11:43:21;2.72;;;1.17;;
27313;SDS011;14800;48.174;9.798;2023-07-31T11:45:47;3.28;;;1.30;;
27313;SDS011;14800;48.174;9.798;2023-07-31T11:50:55;1.83;;;1.10;;
27313;SDS011;14800;48.174;9.798;2023-07-31T11:53:36;2.63;;;1.23;;
27313;SDS011;14800;48.174;9.798;2023-07-31T11:56:17;3.45;;;1.20;;
27313;SDS011;14800;48.174;9.798;2023-07-31T11:58:45;1.70;;;1.20;;
27313;SDS011;14800;48.174;9.798;2023-07-31T12:01:13;2.13;;;1.20;;
27313;SDS011;14800;48.174;9.798;2023-07-31T12:03:40;5.93;;;1.70;;
27313;SDS011;14800;48.174;9.798;2023-07-31T12:06:07;3.78;;;1.40;;
27313;SDS011;14800;48.174;9.798;2023-07-31T12:08:33;3.63;;;1.40;;
27313;SDS011;14800;48.174;9.798;2023-07-31T12:11:02;4.20;;;1.40;;
27313;SDS011;14800;48.174;9.798;2023-07-31T12:13:30;3.88;;;1.38;;
27313;SDS011;14800;48.174;9.798;2023-07-31T12:15:57;3.38;;;1.40;;
27313;SDS011;14800;48.174;9.798;2023-07-31T12:18:25;3.05;;;1.23;;
27313;SDS011;14800;48.174;9.798;2023-07-31T12:20:58;1.67;;;1.30;;
27313;SDS011;14800;48.174;9.798;2023-07-31T12:23:26;4.88;;;1.75;;
27313;SDS011;14800;48.174;9.798;2023-07-31T12:26:02;4.32;;;1.60;;
27313;SDS011;14800;48.174;9.798;2023-07-31T12:28:36;2.65;;;1.27;;
27313;SDS011;14800;48.174;9.798;2023-07-31T12:31:03;5.07;;;1.13;;
27313;SDS011;14800;48.174;9.798;2023-07-31T12:33:33;1.88;;;1.23;;
27313;SDS011;14800;48.174;9.798;2023-07-31T12:36:00;3.47;;;1.30;;
27313;SDS011;14800;48.174;9.798;2023-07-31T12:38:28;2.83;;;1.25;;
27313;SDS011;14800;48.174;9.798;2023-07-31T12:40:55;5.25;;;1.45;;
27313;SDS011;14800;48.174;9.798;2023-07-31T12:43:20;4.95;;;1.42;;
27313;SDS011;14800;48.174;9.798;2023-07-31T12:45:46;3.63;;;1.23;;
27313;SDS011;14800;48.174;9.798;2023-07-31T12:48:12;4.07;;;1.50;;
27313;SDS011;14800;48.174;9.798;2023-07-31T12:50:38;4.95;;;1.80;;
27313;SDS011;14800;48.174;9.798;2023-07-31T12:53:04;2.92;;;1.27;;
27313;SDS011;14800;48.174;9.798;2023-07-31T12:55:30;5.30;;;1.85;;
27313;SDS011;14800;48.174;9.798;2023-07-31T12:57:56;4.75;;;1.60;;
27313;SDS011;14800;48.174;9.798;2023-07-31T13:00:22;5.30;;;1.65;;
27313;SDS011;14800;48.174;9.798;2023-07-31T13:02:47;4.25;;;1.40;;
27313;SDS011;14800;48.174;9.798;2023-07-31T13:05:13;3.65;;;1.50;;
27313;SDS011;14800;48.174;9.798;2023-07-31T13:07:39;2.13;;;1.25;;
27313;SDS011;14800;48.174;9.798;2023-07-31T13:10:06;2.20;;;1.02;;
27313;SDS011;14800;48.174;9.798;2023-07-31T13:12:32;4.53;;;1.48;;
27313;SDS011;14800;48.174;9.798;2023-07-31T13:14:58;3.25;;;1.30;;
27313;SDS011;14800;48.174;9.798;2023-07-31T13:17:24;1.90;;;1.10;;
27313;SDS011;14800;48.174;9.798;2023-07-31T13:19:49;5.00;;;1.38;;
27313;SDS011;14800;48.174;9.798;2023-07-31T13:22:15;3.17;;;1.42;;
27313;SDS011;14800;48.174;9.798;2023-07-31T13:24:41;3.00;;;1.40;;
27313;SDS011;14800;48.174;9.798;2023-07-31T13:27:06;2.55;;;1.45;;
27313;SDS011;14800;48.174;9.798;2023-07-31T13:29:32;5.65;;;1.45;;
27313;SDS011;14800;48.174;9.798;2023-07-31T13:31:58;5.85;;;1.60;;
27313;SDS011;14800;48.174;9.798;2023-07-31T13:34:23;4.10;;;1.45;;
27313;SDS011;14800;48.174;9.798;2023-07-31T13:36:49;4.10;;;1.55;;
27313;SDS011;14800;48.174;9.798;2023-07-31T13:39:15;2.60;;;1.35;;
27313;SDS011;14800;48.174;9.798;2023-07-31T13:41:40;4.25;;;1.40;;
27313;SDS011;14800;48.174;9.798;2023-07-31T13:44:06;5.32;;;1.48;;
27313;SDS011;14800;48.174;9.798;2023-07-31T13:46:32;3.63;;;1.42;;
27313;SDS011;14800;48.174;9.798;2023-07-31T13:48:58;2.47;;;1.60;;
27313;SDS011;14800;48.174;9.798;2023-07-31T13:51:24;4.85;;;1.70;;
27313;SDS011;14800;48.174;9.798;2023-07-31T13:53:50;2.15;;;1.25;;
27313;SDS011;14800;48.174;9.798;2023-07-31T13:56:16;2.10;;;1.48;;
27313;SDS011;14800;48.174;9.798;2023-07-31T13:58:42;2.95;;;1.63;;
27313;SDS011;14800;48.174;9.798;2023-07-31T14:01:07;1.90;;;1.42;;
27313;SDS011;14800;48.174;9.798;2023-07-31T14:03:33;3.08;;;1.50;;
27313;SDS011;14800;48.174;9.798;2023-07-31T14:05:59;4.13;;;1.70;;
27313;SDS011;14800;48.174;9.798;2023-07-31T14:08:25;2.67;;;1.50;;
27313;SDS011;14800;48.174;9.798;2023-07-31T14:10:50;2.78;;;1.65;;
27313;SDS011;14800;48.174;9.798;2023-07-31T14:13:16;7.28;;;1.70;;
27313;SDS011;14800;48.174;9.798;2023-07-31T14:15:41;4.80;;;1.50;;
27313;SDS011;14800;48.174;9.798;2023-07-31T14:18:08;6.47;;;2.15;;
27313;SDS011;14800;48.174;9.798;2023-07-31T14:20:33;3.15;;;1.33;;
27313;SDS011;14800;48.174;9.798;2023-07-31T14:22:59;6.05;;;1.58;;
27313;SDS011;14800;48.174;9.798;2023-07-31T14:25:25;3.63;;;1.63;;
27313;SDS011;14800;48.174;9.798;2023-07-31T14:27:50;2.53;;;1.52;;
27313;SDS011;14800;48.174;9.798;2023-07-31T14:30:16;4.25;;;1.50;;
27313;SDS011;14800;48.174;9.798;2023-07-31T14:32:43;4.88;;;1.70;;
27313;SDS011;14800;48.174;9.798;2023-07-31T14:35:08;5.05;;;1.50;;
27313;SDS011;14800;48.174;9.798;2023-07-31T14:37:37;2.67;;;1.38;;
27313;SDS011;14800;48.174;9.798;2023-07-31T14:40:07;3.30;;;1.30;;
27313;SDS011;14800;48.174;9.798;2023-07-31T14:42:34;3.10;;;1.60;;
27313;SDS011;14800;48.174;9.798;2023-07-31T14:45:00;3.40;;;1.52;;
27313;SDS011;14800;48.174;9.798;2023-07-31T14:47:26;6.32;;;1.88;;
27313;SDS011;14800;48.174;9.798;2023-07-31T14:49:52;2.67;;;1.50;;
27313;SDS011;14800;48.174;9.798;2023-07-31T14:52:18;3.35;;;1.27;;
27313;SDS011;14800;48.174;9.798;2023-07-31T14:54:43;1.80;;;1.50;;
27313;SDS011;14800;48.174;9.798;2023-07-31T14:57:10;3.20;;;1.50;;
27313;SDS011;14800;48.174;9.798;2023-07-31T14:59:35;2.85;;;1.48;;
27313;SDS011;14800;48.174;9.798;2023-07-31T15:02:01;4.60;;;1.77;;